Time;durP1;ratioP1;P1;durP2;ratioP2;P2;SDS_P1;SDS_P2;PMS_P1;PMS_P2;Temp;Humidity;BMP_temperature;BMP_pressure;BME280_temperature;BME280_humidity;BME280_pressure;Samples;Min_cycle;Max_cycle;Signal;HPM_P1;HPM_P2
2021/09/29 00:00:35;;;;;;;3.77;2.63;;;;;;;9.68;79.55;101732.24;1642485;86;21616;-48
2021/09/29 00:03:01;;;;;;;3.67;2.85;;;;;;;9.68;79.49;101734.05;1647500;86;21518;-48
2021/09/29 00:05:28;;;;;;;4.03;2.60;;;;;;;9.65;79.39;101736.52;1654049;86;21525;-49
2021/09/29 00:07:54;;;;;;;3.47;2.17;;;;;;;9.62;79.51;101734.64;1625315;86;22233;-47
2021/09/29 00:10:22;;;;;;;3.60;2.80;;;;;;;9.58;79.61;101739.92;1632053;86;21070;-47
2021/09/29 00:12:49;;;;;;;2.37;2.20;;;;;;;9.57;79.66;101727.59;1652196;86;20985;-48
2021/09/29 00:15:16;;;;;;;3.50;2.42;;;;;;;9.54;79.72;101737.55;1620870;86;21617;-49
2021/09/29 00:17:45;;;;;;;4.90;2.37;;;;;;;9.52;79.79;101740.84;1632672;86;21621;-49
2021/09/29 00:20:14;;;;;;;3.13;2.93;;;;;;;9.47;79.83;101737.78;1642590;86;21043;-48
2021/09/29 00:22:42;;;;;;;2.87;2.47;;;;;;;9.43;80.08;101743.05;1647492;84;21090;-48
2021/09/29 00:25:14;;;;;;;4.77;2.60;;;;;;;9.40;80.08;101736.72;1641119;86;21158;-47
2021/09/29 00:27:42;;;;;;;3.23;2.70;;;;;;;9.39;80.06;101742.18;1643494;86;21078;-48
2021/09/29 00:30:11;;;;;;;4.87;2.17;;;;;;;9.37;79.98;101733.50;1635175;86;21578;-48
2021/09/29 00:32:43;;;;;;;2.60;2.40;;;;;;;9.32;80.08;101737.45;1629198;86;21082;-47
2021/09/29 00:35:10;;;;;;;5.23;2.67;;;;;;;9.30;80.20;101742.55;1625664;86;21662;-48
2021/09/29 00:37:37;;;;;;;5.37;2.63;;;;;;;9.27;80.19;101740.20;1635662;86;21622;-48
2021/09/29 00:40:08;;;;;;;3.80;2.87;;;;;;;9.26;80.20;101737.17;1636112;86;21024;-48
2021/09/29 00:42:36;;;;;;;3.00;2.43;;;;;;;9.24;80.15;101744.47;1642289;86;21039;-49
2021/09/29 00:45:05;;;;;;;4.83;2.60;;;;;;;9.21;80.13;101741.62;1643130;86;21058;-48
2021/09/29 00:47:32;;;;;;;4.47;2.97;;;;;;;9.16;80.19;101738.05;1642937;86;21046;-48
2021/09/29 00:50:00;;;;;;;3.52;2.65;;;;;;;9.07;80.32;101735.42;1630774;86;21086;-49
2021/09/29 00:52:29;;;;;;;2.90;1.90;;;;;;;8.99;80.49;101742.79;1628763;86;21593;-49
2021/09/29 00:54:55;;;;;;;3.90;2.90;;;;;;;8.93;80.66;101738.05;1632581;86;21131;-48
2021/09/29 00:57:21;;;;;;;8.95;2.80;;;;;;;8.87;80.75;101742.59;1642844;86;21324;-49
2021/09/29 00:59:47;;;;;;;4.78;2.70;;;;;;;8.83;80.88;101751.83;1638933;86;21063;-48
2021/09/29 01:02:13;;;;;;;4.53;2.75;;;;;;;8.76;81.08;101747.59;1635639;86;21023;-47
2021/09/29 01:04:40;;;;;;;4.42;2.92;;;;;;;8.71;81.17;101751.16;1642353;86;22309;-48
2021/09/29 01:07:21;;;;;;;3.60;2.77;;;;;;;8.67;81.34;101744.45;1642905;86;21071;-48
2021/09/29 01:10:04;;;;;;;3.93;3.43;;;;;;;8.63;81.49;101746.55;1628975;86;21076;-48
2021/09/29 01:12:49;;;;;;;2.90;2.53;;;;;;;8.59;81.61;101745.16;1608767;86;21023;-47
2021/09/29 01:15:32;;;;;;;3.23;2.33;;;;;;;8.54;81.73;101750.05;1628681;86;21095;-47
2021/09/29 01:18:04;;;;;;;3.63;2.43;;;;;;;8.51;81.82;101751.18;1639549;87;21624;-48
2021/09/29 01:20:38;;;;;;;3.90;2.07;;;;;;;8.48;81.94;101752.78;1641737;86;21013;-48
2021/09/29 01:23:35;;;;;;;5.53;2.77;;;;;;;8.46;81.98;101758.72;1643013;86;21125;-47
2021/09/29 01:26:14;;;;;;;3.62;2.77;;;;;;;8.45;82.04;101764.17;1572495;86;21175;-48
2021/09/29 01:28:57;;;;;;;4.07;2.37;;;;;;;8.41;82.04;101756.10;1643263;86;21007;-47
2021/09/29 01:31:24;;;;;;;4.60;2.40;;;;;;;8.35;82.14;101765.47;1639109;86;21839;-48
2021/09/29 01:33:53;;;;;;;2.87;2.67;;;;;;;8.32;82.23;101761.75;1637552;87;21031;-47
2021/09/29 01:36:22;;;;;;;3.20;2.83;;;;;;;8.30;82.24;101763.21;1626924;86;21072;-47
2021/09/29 01:38:54;;;;;;;3.43;2.97;;;;;;;8.30;82.32;101770.34;1642386;86;21047;-50
2021/09/29 01:41:18;;;;;;;4.30;1.90;;;;;;;8.28;82.27;101761.19;1643108;86;21155;-47
2021/09/29 01:43:44;;;;;;;3.58;2.83;;;;;;;8.30;82.32;101771.18;1641787;86;21071;-48
2021/09/29 01:46:10;;;;;;;3.70;2.17;;;;;;;8.28;82.27;101763.84;1642360;86;21043;-48
2021/09/29 01:48:45;;;;;;;2.75;1.80;;;;;;;8.25;82.30;101768.13;1638961;87;21079;-46
2021/09/29 01:51:12;;;;;;;3.93;2.27;;;;;;;8.23;82.34;101768.75;1642561;86;21047;-48
2021/09/29 01:53:38;;;;;;;;;;;;;;;8.19;82.37;101770.84;1644924;86;21020;-47
2021/09/29 01:56:06;;;;;;;3.33;2.33;;;;;;;8.16;82.42;101780.40;1643635;86;20448;-47
2021/09/29 01:58:32;;;;;;;2.00;1.80;;;;;;;8.11;82.59;101778.63;1641008;86;21036;-48
2021/09/29 02:00:59;;;;;;;;;;;;;;;8.09;82.60;101775.77;1630404;86;21059;-47
2021/09/29 02:03:27;;;;;;;4.23;2.43;;;;;;;8.07;82.60;101783.05;1616591;86;20464;-48
2021/09/29 02:05:53;;;;;;;1.85;1.60;;;;;;;7.99;82.79;101783.72;1641833;86;21009;-47
2021/09/29 02:08:19;;;;;;;5.85;1.90;;;;;;;7.97;82.82;101783.02;1642322;86;21099;-47
2021/09/29 02:10:45;;;;;;;3.65;2.25;;;;;;;7.95;82.84;101789.79;1641838;86;21051;-46
2021/09/29 02:13:12;;;;;;;;;;;;;;;7.94;82.87;101788.09;1655985;84;21114;-48
2021/09/29 02:15:38;;;;;;;3.27;2.27;;;;;;;7.92;82.89;101787.39;1642439;86;20126;-47
2021/09/29 02:18:04;;;;;;;5.22;2.25;;;;;;;7.87;83.01;101787.45;1642339;86;21143;-47
2021/09/29 02:20:30;;;;;;;3.85;2.10;;;;;;;7.51;83.03;101737.95;1641617;86;21074;-47
2021/09/29 02:22:56;;;;;;;2.85;2.10;;;;;;;7.83;83.05;101789.53;1642586;86;21047;-48
2021/09/29 02:25:24;;;;;;;2.17;1.65;;;;;;;7.79;83.09;101787.62;1637942;86;21244;-47
2021/09/29 02:27:50;;;;;;;1.97;1.77;;;;;;;7.77;83.09;101798.04;1625826;86;21070;-47
2021/09/29 02:30:16;;;;;;;2.00;1.90;;;;;;;7.75;83.13;101792.86;1628962;86;21474;-47
2021/09/29 02:32:43;;;;;;;3.93;1.80;;;;;;;7.73;83.12;101788.67;1642951;86;21580;-47
2021/09/29 02:35:12;;;;;;;1.82;1.72;;;;;;;7.73;83.12;101787.34;1601929;86;21071;-48
2021/09/29 02:37:39;;;;;;;2.80;2.03;;;;;;;7.63;83.13;101785.12;1606815;88;21055;-47
2021/09/29 02:40:08;;;;;;;2.98;2.02;;;;;;;7.71;83.15;101801.23;1606819;88;21669;-48
2021/09/29 02:42:34;;;;;;;2.30;2.10;;;;;;;7.68;83.17;101804.98;1604500;88;21098;-47
2021/09/29 02:45:02;;;;;;;2.20;2.00;;;;;;;7.64;83.21;101803.57;1605664;88;21146;-47
2021/09/29 02:47:28;;;;;;;2.37;1.77;;;;;;;7.62;83.21;101808.17;1606084;88;21095;-47
2021/09/29 02:49:55;;;;;;;2.10;1.83;;;;;;;7.59;83.30;101807.96;1609209;88;21119;-52
2021/09/29 02:52:22;;;;;;;1.77;1.67;;;;;;;7.57;83.32;101812.56;1602392;88;21037;-47
2021/09/29 02:54:48;;;;;;;;;;;;;;;7.57;83.36;101813.03;1602480;88;21145;-46
2021/09/29 02:57:14;;;;;;;2.70;1.87;;;;;;;7.55;83.38;101816.30;1620141;87;20149;-46
2021/09/29 02:59:40;;;;;;;5.55;1.22;;;;;;;7.49;83.58;101819.49;1622606;87;21649;-46
2021/09/29 03:02:08;;;;;;;2.17;1.90;;;;;;;7.48;83.67;101809.37;1614886;87;21106;-46
2021/09/29 03:04:34;;;;;;;2.52;2.25;;;;;;;7.48;83.62;101815.14;1622027;87;21134;-46
2021/09/29 03:07:04;;;;;;;1.53;1.43;;;;;;;7.47;83.70;101814.31;1622060;87;21560;-47
2021/09/29 03:09:30;;;;;;;2.97;1.70;;;;;;;7.12;83.67;101759.84;1611567;87;21129;-47
2021/09/29 03:11:57;;;;;;;2.33;1.53;;;;;;;7.47;83.72;101822.27;1621253;87;21096;-49
2021/09/29 03:14:23;;;;;;;2.62;2.10;;;;;;;7.47;83.77;101824.92;1617651;87;21062;-45
2021/09/29 03:16:49;;;;;;;2.60;2.40;;;;;;;7.45;83.82;101824.22;1622200;87;21070;-47
2021/09/29 03:19:15;;;;;;;2.58;2.37;;;;;;;7.43;83.89;101824.00;1621276;87;21130;-46
2021/09/29 03:21:42;;;;;;;2.30;1.83;;;;;;;7.42;83.98;101828.45;1620566;87;21030;-45
2021/09/29 03:24:08;;;;;;;2.83;2.62;;;;;;;7.40;84.04;101824.62;1620767;87;22070;-47
2021/09/29 03:26:34;;;;;;;2.47;2.20;;;;;;;7.40;84.13;101827.28;1622714;87;21617;-47
2021/09/29 03:29:02;;;;;;;;;;;;;;;7.43;84.13;101824.84;1629810;87;21053;-47
2021/09/29 03:31:28;;;;;;;1.85;1.75;;;;;;;7.42;84.13;101828.45;1615979;87;20126;-46
2021/09/29 03:33:54;;;;;;;2.37;2.08;;;;;;;7.35;84.37;101822.84;1620891;87;21035;-46
2021/09/29 03:36:21;;;;;;;2.95;1.95;;;;;;;7.36;84.49;101827.66;1618224;87;21070;-46
2021/09/29 03:38:47;;;;;;;7.10;2.37;;;;;;;7.36;84.52;101827.16;1614103;87;21647;-46
2021/09/29 03:41:14;;;;;;;2.73;2.40;;;;;;;7.36;84.59;101827.66;1621839;87;21046;-45
2021/09/29 03:43:40;;;;;;;2.47;2.37;;;;;;;7.36;84.61;101831.14;1622287;87;21086;-47
2021/09/29 03:46:06;;;;;;;2.50;2.10;;;;;;;7.35;84.64;101833.95;1622545;87;21094;-47
2021/09/29 03:48:33;;;;;;;1.98;1.87;;;;;;;7.33;84.67;101832.75;1621977;87;21021;-47
2021/09/29 03:50:59;;;;;;;2.45;2.33;;;;;;;7.34;84.70;101844.19;1622752;87;21082;-47
2021/09/29 03:53:25;;;;;;;3.80;2.83;;;;;;;7.36;84.71;101842.24;1621542;87;21063;-47
2021/09/29 03:55:51;;;;;;;3.30;2.67;;;;;;;7.35;84.67;101840.58;1610995;88;21137;-45
2021/09/29 03:58:20;;;;;;;3.30;1.73;;;;;;;7.38;84.66;101845.14;1616000;87;21047;-45
2021/09/29 04:00:46;;;;;;;3.27;2.17;;;;;;;7.39;84.57;101850.78;1613639;87;21073;-47
2021/09/29 04:03:12;;;;;;;4.20;2.25;;;;;;;7.39;84.47;101846.80;1615496;87;21046;-47
2021/09/29 04:05:38;;;;;;;3.27;2.10;;;;;;;7.34;84.48;101845.52;1607018;87;21071;-47
2021/09/29 04:08:05;;;;;;;3.25;2.47;;;;;;;7.31;84.51;101853.72;1620608;87;21517;-47
2021/09/29 04:10:31;;;;;;;2.67;2.47;;;;;;;7.33;84.48;101853.13;1618985;87;21141;-47
2021/09/29 04:12:58;;;;;;;2.65;2.30;;;;;;;7.34;84.43;101848.17;1612199;87;21006;-47
2021/09/29 04:15:25;;;;;;;3.63;2.40;;;;;;;7.38;84.39;101858.87;1617163;87;21438;-47
2021/09/29 04:17:51;;;;;;;3.45;3.15;;;;;;;7.40;84.18;101852.95;1622655;87;21134;-46
2021/09/29 04:20:17;;;;;;;2.70;2.47;;;;;;;7.43;84.13;101860.66;1622237;87;21529;-47
2021/09/29 04:22:44;;;;;;;2.97;2.77;;;;;;;7.46;83.89;101854.23;1623995;87;21145;-48
2021/09/29 04:25:12;;;;;;;4.13;2.57;;;;;;;7.52;83.88;101855.89;1617136;87;21147;-46
2021/09/29 04:27:38;;;;;;;;;;;;;;;7.64;83.74;101865.10;1611721;87;21066;-47
2021/09/29 04:30:07;;;;;;;2.17;2.03;;;;;;;7.73;83.39;101857.68;1616036;87;20152;-47
2021/09/29 04:32:34;;;;;;;3.40;3.10;;;;;;;7.76;83.29;101864.89;1615382;87;21605;-47
2021/09/29 04:35:00;;;;;;;2.57;2.37;;;;;;;7.83;82.76;101861.70;1617786;87;21058;-47
2021/09/29 04:37:26;;;;;;;3.37;1.90;;;;;;;7.89;82.22;101868.66;1621799;87;21414;-49
2021/09/29 04:39:52;;;;;;;3.85;2.40;;;;;;;7.98;81.76;101874.97;1614752;87;21498;-48
2021/09/29 04:42:19;;;;;;;;;;;;;;;8.06;81.33;101878.28;1624375;87;21114;-46
2021/09/29 04:44:45;;;;;;;4.77;2.30;;;;;;;8.11;80.85;101886.20;1608278;87;20164;-47
2021/09/29 04:47:12;;;;;;;2.45;2.25;;;;;;;8.07;80.37;101891.43;1613165;87;21113;-48
2021/09/29 04:49:38;;;;;;;4.07;2.83;;;;;;;8.09;80.76;101885.98;1615004;87;21069;-48
2021/09/29 04:52:06;;;;;;;3.15;2.95;;;;;;;8.14;80.41;101884.61;1622168;87;21106;-47
2021/09/29 04:54:32;;;;;;;3.33;3.10;;;;;;;8.13;80.17;101888.23;1622549;87;21032;-47
2021/09/29 04:56:58;;;;;;;3.33;3.08;;;;;;;8.11;79.88;101890.67;1617429;87;21731;-47
2021/09/29 04:59:24;;;;;;;2.92;2.65;;;;;;;8.11;79.82;101895.98;1607186;87;21010;-47
2021/09/29 05:01:53;;;;;;;6.72;2.42;;;;;;;8.14;79.54;101904.53;1619927;87;21075;-46
2021/09/29 05:04:24;;;;;;;3.50;2.63;;;;;;;8.20;79.56;101896.52;1589784;88;21070;-47
2021/09/29 05:06:48;;;;;;;3.13;2.70;;;;;;;8.27;79.14;101897.66;1626914;87;21114;-47
2021/09/29 05:09:14;;;;;;;2.00;1.90;;;;;;;8.36;78.70;101899.98;1622264;87;21098;-47
2021/09/29 05:12:00;;;;;;;5.83;2.70;;;;;;;8.39;78.43;101906.36;1622147;85;21069;-48
2021/09/29 05:14:26;;;;;;;6.60;2.53;;;;;;;8.45;78.29;101911.16;1603115;87;21646;-46
2021/09/29 05:16:52;;;;;;;;;;;;;;;8.63;78.54;101913.17;1624958;87;21078;-48
2021/09/29 05:19:19;;;;;;;2.57;1.83;;;;;;;8.88;77.22;101914.46;1621100;87;20498;-48
2021/09/29 05:21:45;;;;;;;4.65;2.67;;;;;;;9.09;75.74;101908.51;1608576;87;21650;-48
2021/09/29 05:24:11;;;;;;;3.08;2.77;;;;;;;9.34;75.59;101910.24;1620441;87;21595;-47
2021/09/29 05:26:37;;;;;;;;;;;;;;;9.58;74.47;101923.11;1624154;87;21026;-48
2021/09/29 05:31:11;;;;;;;8.07;2.93;;;;;;;10.21;72.10;101906.52;1792231;78;22993;-48
2021/09/29 05:33:38;;;;;;;2.83;2.63;;;;;;;10.59;70.74;101919.81;1739032;80;21593;-48
2021/09/29 05:36:05;;;;;;;3.05;2.77;;;;;;;11.24;69.59;101913.76;1707898;83;21605;-49
2021/09/29 05:38:31;;;;;;;2.27;2.08;;;;;;;12.04;67.37;101915.52;1709082;83;21037;-48
2021/09/29 05:40:57;;;;;;;6.30;2.47;;;;;;;12.81;63.64;101914.11;1719129;83;21018;-48
2021/09/29 05:43:24;;;;;;;4.05;2.65;;;;;;;13.46;60.89;101913.83;1705998;83;21037;-49
2021/09/29 05:45:52;;;;;;;3.77;2.00;;;;;;;14.05;59.09;101912.19;1715673;82;21057;-48
2021/09/29 05:48:18;;;;;;;2.22;1.07;;;;;;;14.36;57.00;101916.27;1683604;83;21050;-49
2021/09/29 05:50:44;;;;;;;;;;;;;;;14.69;55.53;101922.83;1693257;83;21123;-49
2021/09/29 05:53:12;;;;;;;1.67;1.57;;;;;;;15.07;54.56;101910.34;1696482;83;20415;-48
2021/09/29 05:55:38;;;;;;;2.22;2.08;;;;;;;15.48;53.06;101901.94;1692585;84;22341;-49
2021/09/29 05:58:04;;;;;;;3.42;2.00;;;;;;;15.79;51.72;101902.83;1724321;81;21586;-48
2021/09/29 06:00:31;;;;;;;1.40;1.30;;;;;;;16.05;51.19;101909.06;1712158;81;21504;-47
2021/09/29 06:02:57;;;;;;;4.03;1.62;;;;;;;16.23;49.92;101912.73;1669700;84;21519;-48
2021/09/29 06:05:23;;;;;;;1.32;1.20;;;;;;;16.43;49.07;101908.95;1650584;84;21033;-49
2021/09/29 06:07:49;;;;;;;1.47;1.37;;;;;;;16.49;47.28;101913.05;1658935;84;21552;-51
2021/09/29 06:10:16;;;;;;;1.70;1.60;;;;;;;16.40;48.30;101912.84;1661509;84;21166;-49
2021/09/29 06:12:43;;;;;;;1.85;1.75;;;;;;;16.44;48.03;101910.61;1663341;84;21081;-47
2021/09/29 06:15:19;;;;;;;1.77;1.40;;;;;;;16.44;48.03;101920.02;1695654;83;21072;-49
2021/09/29 06:17:42;;;;;;;1.90;1.80;;;;;;;16.18;48.32;101934.83;1663869;84;21129;-48
2021/09/29 06:20:09;;;;;;;3.05;2.12;;;;;;;15.59;49.02;101922.13;1661338;84;21018;-50
2021/09/29 06:22:38;;;;;;;1.47;1.45;;;;;;;14.80;50.30;101934.50;1681792;83;21617;-47
2021/09/29 06:25:08;;;;;;;3.85;2.17;;;;;;;13.74;52.38;101908.42;1690193;83;21093;-51
2021/09/29 06:27:34;;;;;;;2.83;2.70;;;;;;;12.99;54.91;101932.19;1669244;84;21039;-48
2021/09/29 06:30:01;;;;;;;2.25;2.05;;;;;;;12.43;56.85;101925.69;1660217;84;21607;-48
2021/09/29 06:32:27;;;;;;;;;;;;;;;11.96;58.57;101931.48;1709994;82;21041;-50
2021/09/29 06:34:53;;;;;;;5.80;3.13;;;;;;;11.59;59.82;101926.72;1702713;82;20266;-49
2021/09/29 06:37:19;;;;;;;3.00;2.80;;;;;;;11.27;61.19;101929.48;1715761;82;21814;-48
2021/09/29 06:39:46;;;;;;;;;;;;;;;11.09;62.27;101932.17;1713090;82;21536;-61
2021/09/29 06:42:12;;;;;;;3.70;3.40;;;;;;;10.94;63.09;101930.17;1706605;82;20184;-61
2021/09/29 06:44:37;;;;;;;3.75;3.50;;;;;;;10.75;63.71;101935.98;1697963;82;21029;-61
2021/09/29 06:47:04;;;;;;;3.47;3.25;;;;;;;10.37;64.53;101877.08;1658915;84;21012;-63
2021/09/29 06:49:30;;;;;;;3.60;3.12;;;;;;;10.73;64.85;101935.29;1656839;84;21475;-60
2021/09/29 06:51:58;;;;;;;4.20;3.83;;;;;;;10.83;65.23;101937.41;1661315;84;22195;-60
2021/09/29 06:54:26;;;;;;;3.55;3.35;;;;;;;10.94;65.00;101939.51;1666448;84;21047;-62
2021/09/29 06:56:53;;;;;;;3.95;3.55;;;;;;;10.84;65.32;101936.91;1646245;84;21099;-59
2021/09/29 06:59:19;;;;;;;5.45;3.72;;;;;;;10.82;65.52;101938.89;1652382;84;21107;-60
2021/09/29 07:01:47;;;;;;;2.98;2.87;;;;;;;10.78;65.81;101934.86;1670855;83;21071;-60
2021/09/29 07:04:13;;;;;;;4.55;4.25;;;;;;;10.69;66.13;101940.59;1676945;83;21087;-60
2021/09/29 07:06:40;;;;;;;4.33;4.05;;;;;;;10.63;66.01;101951.36;1675029;83;21627;-59
2021/09/29 07:09:06;;;;;;;3.30;3.10;;;;;;;10.56;66.21;101943.60;1684953;83;20995;-61
2021/09/29 07:11:33;;;;;;;3.67;3.43;;;;;;;10.53;66.58;101947.92;1678088;83;21548;-61
2021/09/29 07:14:02;;;;;;;3.50;3.30;;;;;;;10.59;66.95;101953.16;1686336;83;21591;-60
2021/09/29 07:16:30;;;;;;;2.75;2.52;;;;;;;10.67;66.61;101943.39;1678847;83;21023;-61
2021/09/29 07:19:01;;;;;;;3.55;3.35;;;;;;;10.78;66.54;101942.36;1674202;83;21085;-59
2021/09/29 07:21:25;;;;;;;5.85;3.33;;;;;;;10.93;66.50;101940.52;1687573;83;21069;-61
2021/09/29 07:23:51;;;;;;;4.30;3.47;;;;;;;11.03;66.23;101943.44;1668830;83;21678;-61
2021/09/29 07:26:18;;;;;;;4.40;3.98;;;;;;;11.10;65.33;101944.51;1678454;83;21567;-63
2021/09/29 07:28:48;;;;;;;4.33;4.00;;;;;;;11.10;65.40;101935.17;1631480;86;21647;-62
2021/09/29 07:31:15;;;;;;;4.28;3.98;;;;;;;11.07;65.58;101944.80;1684077;83;21161;-63
2021/09/29 07:33:41;;;;;;;4.53;4.20;;;;;;;11.05;65.61;101949.95;1677264;80;21034;-66
2021/09/29 07:36:08;;;;;;;3.55;3.25;;;;;;;11.02;65.74;101944.91;1675078;83;21037;-68
2021/09/29 07:38:40;;;;;;;;;;;;;;;11.03;65.28;101950.10;1672512;83;21101;-68
2021/09/29 07:41:07;;;;;;;2.87;2.60;;;;;;;11.07;64.71;101946.14;1681656;83;20495;-65
2021/09/29 07:43:33;;;;;;;3.90;3.17;;;;;;;11.02;64.40;101956.92;1676896;83;21046;-64
2021/09/29 07:45:59;;;;;;;4.67;2.10;;;;;;;10.95;64.54;101950.03;1677255;81;21038;-69
2021/09/29 07:48:25;;;;;;;3.10;2.27;;;;;;;10.90;63.66;101946.97;1684833;83;21097;-63
2021/09/29 07:50:54;;;;;;;1.52;1.50;;;;;;;10.83;63.56;101949.89;1695397;83;21101;-63
2021/09/29 07:53:24;;;;;;;2.58;1.65;;;;;;;10.82;62.80;101949.56;1675433;83;20991;-65
2021/09/29 07:55:49;;;;;;;2.45;2.33;;;;;;;10.86;63.11;101948.27;1673418;81;21103;-62
2021/09/29 07:58:15;;;;;;;;;;;;;;;10.95;62.59;101956.70;1640567;86;21086;-65
2021/09/29 08:00:41;;;;;;;2.72;2.05;;;;;;;11.00;62.53;101951.76;1618728;85;20478;-63
2021/09/29 08:03:07;;;;;;;1.12;1.02;;;;;;;10.69;62.59;101904.08;1611538;86;21556;-61
2021/09/29 08:05:33;;;;;;;;;;;;;;;11.08;61.07;101963.01;1604482;87;21615;-63
2021/09/29 08:07:59;;;;;;;1.47;1.40;;;;;;;11.15;60.73;101950.73;1620770;86;20201;-62
2021/09/29 08:10:27;;;;;;;1.17;1.17;;;;;;;11.19;60.15;101971.27;1615467;87;21105;-65
2021/09/29 08:12:56;;;;;;;1.15;0.75;;;;;;;11.24;59.38;101956.97;1671951;83;21081;-63
2021/09/29 08:15:24;;;;;;;2.65;1.40;;;;;;;11.29;58.33;101960.86;1625226;86;21070;-62
2021/09/29 08:17:55;;;;;;;2.25;0.98;;;;;;;11.31;58.35;101970.05;1606891;87;21160;-64
2021/09/29 08:20:20;;;;;;;1.65;1.37;;;;;;;11.29;58.00;101981.38;1609232;87;21102;-63
2021/09/29 08:22:56;;;;;;;1.12;1.00;;;;;;;11.25;57.44;101966.17;1668128;81;21077;-63
2021/09/29 08:25:34;;;;;;;2.30;0.85;;;;;;;11.22;57.25;101960.29;1630554;86;21188;-65
2021/09/29 08:28:14;;;;;;;0.73;0.60;;;;;;;11.17;56.00;101983.45;1601126;87;21174;-63
2021/09/29 08:33:07;;;;;;;2.40;1.10;;;;;;;11.13;55.25;101986.55;1620576;86;21039;-59
2021/09/29 08:35:33;;;;;;;1.17;1.17;;;;;;;11.16;55.47;101971.59;1647715;85;21087;-60
2021/09/29 08:38:05;;;;;;;1.20;0.82;;;;;;;11.15;55.40;101969.89;1628485;86;21563;-58
2021/09/29 08:40:45;;;;;;;0.60;0.60;;;;;;;11.17;55.05;101961.23;1644293;85;21058;-59
2021/09/29 08:43:03;;;;;;;3.03;1.17;;;;;;;11.21;55.24;101966.14;1643434;85;21038;-62
2021/09/29 08:45:34;;;;;;;1.20;1.10;;;;;;;11.26;55.52;101962.99;1643600;85;21097;-61
2021/09/29 09:18:21;;;;;;;1.37;0.73;;;;;;;11.21;52.85;101941.28;1689218;83;21097;-63
2021/09/29 09:21:05;;;;;;;2.87;0.72;;;;;;;11.22;52.90;101941.61;1680822;83;21042;-62
2021/09/29 09:23:36;;;;;;;0.70;0.70;;;;;;;11.23;52.94;101951.31;1669442;83;22128;-62
2021/09/29 09:26:18;;;;;;;2.40;0.75;;;;;;;11.27;52.92;101962.02;1671331;83;21054;-61
2021/09/29 09:28:50;;;;;;;3.65;0.80;;;;;;;11.32;52.74;101941.52;1664734;83;21080;-64
2021/09/29 09:31:21;;;;;;;2.52;0.98;;;;;;;11.34;53.16;101941.73;1674224;83;21581;-63
2021/09/29 09:33:56;;;;;;;1.33;0.70;;;;;;;11.38;53.35;101951.10;1684820;82;21033;-64
2021/09/29 09:36:39;;;;;;;1.10;1.00;;;;;;;11.40;53.09;101945.11;1684249;83;21022;-68
2021/09/29 09:39:11;;;;;;;3.17;0.78;;;;;;;11.40;53.19;101950.45;1668686;83;21049;-63
2021/09/29 09:41:47;;;;;;;1.37;0.93;;;;;;;11.39;53.23;101947.92;1687150;83;21118;-62
2021/09/29 09:44:22;;;;;;;2.45;0.98;;;;;;;11.40;53.22;101948.28;1686014;83;21063;-64
2021/09/29 09:47:09;;;;;;;5.10;0.80;;;;;;;11.38;53.52;101947.09;1653342;84;21566;-63
2021/09/29 09:49:49;;;;;;;1.95;0.60;;;;;;;11.40;53.16;101950.45;1647882;84;21542;-64
2021/09/29 09:52:42;;;;;;;3.87;1.20;;;;;;;11.41;53.42;101941.94;1661193;84;21032;-62
2021/09/29 09:55:16;;;;;;;1.30;1.30;;;;;;;11.41;53.51;101937.42;1648531;84;21079;-62
2021/09/29 09:57:44;;;;;;;1.57;1.47;;;;;;;11.45;53.86;101952.17;1681431;83;21052;-61
2021/09/29 10:00:18;;;;;;;1.60;1.43;;;;;;;11.15;53.66;101886.69;1689419;83;21035;-63
2021/09/29 10:02:46;;;;;;;0.83;0.83;;;;;;;11.52;53.33;101943.02;1669356;85;21535;-62
2021/09/29 10:05:18;;;;;;;1.42;1.15;;;;;;;11.53;53.39;101941.18;1639749;85;21018;-68
2021/09/29 10:07:46;;;;;;;1.65;1.27;;;;;;;11.51;53.66;101934.69;1641627;85;21667;-74
2021/09/29 10:22:50;;;;;;;1.90;1.80;;;;;;;11.53;53.64;101938.52;1676650;83;21055;-67
2021/09/29 10:23:51;;;;;;;1.77;1.67;;;;;;;11.38;54.39;101937.75;1679374;83;21120;-64
2021/09/29 10:26:08;;;;;;;1.90;1.80;;;;;;;11.33;54.41;101940.03;1675426;83;21640;-68
2021/09/29 10:28:38;;;;;;;1.95;1.85;;;;;;;11.27;54.80;101950.00;1651566;85;21648;-65
2021/09/29 10:33:56;;;;;;;2.43;2.23;;;;;;;11.23;55.80;101953.47;1683596;81;21063;-52
2021/09/29 10:44:30;;;;;;;3.37;3.10;;;;;;;11.14;56.22;101948.22;1681194;83;22146;-61
2021/09/29 11:11:52;;;;;;;4.75;2.60;;;;;;;11.47;56.55;101911.46;1639191;84;21093;-61
2021/09/29 11:30:37;;;;;;;5.17;3.27;;;;;;;11.65;56.04;101907.91;1655047;85;21132;-64
2021/09/29 11:33:23;;;;;;;3.17;2.80;;;;;;;11.55;56.46;101907.18;1692584;84;21074;-62
2021/09/29 12:08:50;;;;;;;5.60;3.30;;;;;;;11.41;57.34;101892.03;1698658;84;21064;-62
2021/09/29 12:11:27;;;;;;;5.87;3.00;;;;;;;11.38;57.53;101899.55;1691165;82;21647;-62
2021/09/29 12:16:34;;;;;;;3.67;3.10;;;;;;;11.43;57.77;101906.57;1702051;82;21220;-60
2021/09/29 12:19:11;;;;;;;5.47;3.43;;;;;;;11.45;57.53;101905.91;1680678;82;21005;-62
2021/09/29 12:21:53;;;;;;;4.37;3.67;;;;;;;11.46;57.65;101904.43;1683439;83;21037;-63
2021/09/29 12:24:42;;;;;;;5.05;3.90;;;;;;;11.50;57.10;101903.12;1649026;84;21562;-62
2021/09/29 12:27:04;;;;;;;3.43;3.13;;;;;;;11.51;57.23;101905.31;1652820;85;21041;-61
2021/09/29 12:29:37;;;;;;;6.17;4.20;;;;;;;11.50;57.58;101907.13;1635053;86;21065;-62
2021/09/29 12:38:00;;;;;;;3.73;3.23;;;;;;;11.53;57.23;101895.78;1698201;82;21088;-60
2021/09/29 12:40:31;;;;;;;5.57;4.23;;;;;;;11.50;57.50;101896.45;1691699;84;21017;-62
2021/09/29 12:43:02;;;;;;;4.75;4.35;;;;;;;11.45;57.75;101893.42;1684089;84;21088;-62
2021/09/29 12:45:36;;;;;;;6.80;4.40;;;;;;;11.44;57.85;101897.08;1678604;82;21068;-60
2021/09/29 12:48:05;;;;;;;7.00;4.50;;;;;;;11.45;57.76;101901.44;1664157;82;21104;-60
2021/09/29 12:50:48;;;;;;;10.30;4.45;;;;;;;11.47;57.88;101903.92;1659005;85;21096;-63
2021/09/29 12:53:24;;;;;;;5.17;3.58;;;;;;;11.46;57.56;101896.42;1697744;83;21093;-62
2021/09/29 12:56:04;;;;;;;5.73;4.20;;;;;;;11.47;57.66;101895.44;1691317;83;21066;-62
2021/09/29 12:58:31;;;;;;;7.35;4.40;;;;;;;11.50;57.72;101904.45;1687331;82;20979;-62
2021/09/29 13:01:00;;;;;;;4.03;3.33;;;;;;;11.51;57.57;101899.98;1667934;84;21739;-61
2021/09/29 13:03:28;;;;;;;4.75;3.60;;;;;;;11.51;57.63;101898.64;1653417;86;21041;-62
2021/09/29 13:05:57;;;;;;;5.70;4.70;;;;;;;11.51;57.74;101898.64;1689274;82;21006;-56
2021/09/29 13:08:25;;;;;;;4.70;4.27;;;;;;;11.50;57.02;101896.45;1688576;84;21140;-63
2021/09/29 13:10:52;;;;;;;5.67;3.83;;;;;;;11.48;57.17;101896.27;1696619;82;21057;-63
2021/09/29 13:13:20;;;;;;;4.97;4.45;;;;;;;11.47;57.11;101902.59;1645484;81;21043;-68
2021/09/29 13:15:50;;;;;;;4.42;4.03;;;;;;;11.45;57.03;101897.43;1697505;82;21113;-64
2021/09/29 13:18:21;;;;;;;5.12;3.80;;;;;;;11.44;56.67;101899.75;1654701;85;21072;-64
2021/09/29 13:20:47;;;;;;;4.10;3.62;;;;;;;11.44;56.55;101896.25;1681665;82;21030;-64
2021/09/29 13:23:24;;;;;;;3.47;3.27;;;;;;;11.44;56.72;101898.91;1693701;82;21009;-64
2021/09/29 13:36:38;;;;;;;6.53;4.90;;;;;;;11.37;57.75;101890.67;1687624;82;21201;-64
2021/09/29 13:39:13;;;;;;;8.30;4.30;;;;;;;11.37;57.90;101888.51;1701706;84;21057;-65
2021/09/29 13:41:41;;;;;;;4.17;3.65;;;;;;;11.38;57.95;101891.03;1697991;82;21089;-65
2021/09/29 13:44:09;;;;;;;5.43;4.10;;;;;;;11.39;57.98;101885.19;1688469;83;21036;-64
2021/09/29 13:46:38;;;;;;;5.77;4.07;;;;;;;11.38;58.01;101887.53;1695393;82;21519;-65
2021/09/29 13:49:06;;;;;;;6.63;3.83;;;;;;;11.34;58.05;101891.00;1657327;85;21510;-58
2021/09/29 13:51:39;;;;;;;4.15;3.27;;;;;;;11.33;58.13;101885.31;1697856;82;21058;-58
2021/09/29 13:54:15;;;;;;;4.63;3.67;;;;;;;11.32;58.45;101886.80;1695658;82;21021;-68
2021/09/29 13:56:48;;;;;;;6.17;3.93;;;;;;;11.27;58.64;101900.12;1691062;81;21031;-63
2021/09/29 14:34:05;;;;;;;4.70;4.27;;;;;;;10.94;60.18;101904.83;1695366;82;21529;-67
2021/09/29 14:36:32;;;;;;;4.37;3.98;;;;;;;10.90;60.35;101914.45;1705347;82;21067;-63
2021/09/29 14:38:58;;;;;;;;;;;;;;;10.86;60.68;101905.59;1686930;82;21045;-64
2021/09/29 14:41:24;;;;;;;4.70;2.97;;;;;;;10.85;61.03;101917.23;1702530;82;20193;-63
2021/09/29 14:43:50;;;;;;;;;;;;;;;10.86;61.14;101917.59;1708913;84;21595;-65
2021/09/29 14:46:17;;;;;;;4.47;3.60;;;;;;;10.87;61.39;101916.11;1687773;82;20116;-62